createdAt,value
2022-10-14T00:01:27.219Z,14.12
2022-10-14T00:02:27.022Z,14.08
2022-10-14T00:03:27.037Z,14.12
2022-10-14T00:04:27.032Z,14.12
2022-10-14T00:05:27.042Z,14.15
2022-10-14T00:06:27.049Z,14.14
2022-10-14T00:07:27.055Z,14.18
2022-10-14T00:08:27.061Z,14.22
2022-10-14T00:09:27.077Z,14.29
2022-10-14T00:10:27.084Z,14.28
2022-10-14T00:11:27.085Z,14.23
2022-10-14T00:12:27.095Z,14.29
2022-10-14T00:13:27.098Z,14.22
2022-10-14T00:14:27.111Z,14.23
2022-10-14T00:15:27.117Z,14.22
2022-10-14T00:16:27.125Z,14.37
2022-10-14T00:17:27.147Z,14.20
2022-10-14T00:18:27.132Z,14.22
2022-10-14T00:19:27.145Z,14.32
2022-10-14T00:20:27.148Z,14.33
2022-10-14T00:21:27.160Z,14.36
2022-10-14T00:22:27.167Z,14.37
2022-10-14T00:23:27.178Z,14.37
2022-10-14T00:24:27.176Z,14.32
2022-10-14T00:25:27.187Z,14.30
2022-10-14T00:26:27.196Z,14.32
2022-10-14T00:27:27.195Z,14.22
2022-10-14T00:28:27.318Z,14.20
2022-10-14T00:29:27.209Z,14.22
2022-10-14T00:30:27.218Z,14.29
2022-10-14T00:31:27.222Z,14.28
2022-10-14T00:32:27.231Z,14.29
2022-10-14T00:33:27.258Z,14.28
2022-10-14T00:34:29.440Z,14.23
2022-10-14T00:35:27.261Z,14.28
2022-10-14T00:36:27.266Z,14.26
2022-10-14T00:37:27.274Z,14.36
2022-10-14T00:38:27.280Z,14.22
2022-10-14T00:39:27.287Z,14.29
2022-10-14T00:40:27.298Z,14.35
2022-10-14T00:41:27.298Z,14.30
2022-10-14T00:42:27.313Z,14.23
2022-10-14T00:43:27.318Z,14.28
2022-10-14T00:44:27.317Z,14.22
2022-10-14T00:45:27.331Z,14.29
2022-10-14T00:46:27.334Z,14.25
2022-10-14T00:47:27.345Z,14.26
2022-10-14T00:48:27.345Z,14.23
2022-10-14T00:49:27.378Z,14.22
2022-10-14T00:50:27.367Z,14.17
2022-10-14T00:51:27.366Z,14.15
2022-10-14T00:52:27.373Z,14.17
2022-10-14T00:53:27.387Z,14.22
2022-10-14T00:54:27.396Z,14.20
2022-10-14T00:55:27.401Z,14.23
2022-10-14T00:56:27.408Z,14.26
2022-10-14T00:57:27.418Z,14.29
2022-10-14T00:58:27.422Z,14.41
2022-10-14T00:59:27.431Z,14.35
2022-10-14T01:00:27.456Z,14.35
2022-10-14T01:01:27.438Z,14.43
2022-10-14T01:02:27.443Z,14.44
2022-10-14T01:03:27.452Z,14.32
2022-10-14T01:04:27.464Z,14.44
2022-10-14T01:05:27.487Z,14.50
2022-10-14T01:06:27.470Z,14.53
2022-10-14T01:07:27.481Z,14.58
2022-10-14T01:08:27.492Z,14.53
2022-10-14T01:09:27.509Z,14.58
2022-10-14T01:12:53.359Z,14.58
2022-10-14T01:13:53.360Z,14.58
2022-10-14T01:14:53.376Z,14.58
2022-10-14T01:15:53.372Z,14.58
2022-10-14T01:16:53.388Z,14.55
2022-10-14T01:17:53.398Z,14.51
2022-10-14T01:18:53.395Z,14.53
2022-10-14T01:19:53.400Z,14.53
2022-10-14T01:20:53.429Z,14.55
2022-10-14T01:21:53.422Z,14.51
2022-10-14T01:22:53.430Z,14.58
2022-10-14T01:23:53.435Z,14.48
2022-10-14T01:24:53.436Z,14.51
2022-10-14T01:25:53.442Z,14.58
2022-10-14T01:26:53.451Z,14.55
2022-10-14T01:27:53.464Z,14.53
2022-10-14T01:28:53.491Z,14.51
2022-10-14T01:29:53.470Z,14.48
2022-10-14T01:30:53.477Z,14.55
2022-10-14T01:31:53.493Z,14.53
2022-10-14T01:32:53.491Z,14.51
2022-10-14T01:33:53.500Z,14.51
2022-10-14T01:34:53.513Z,14.50
2022-10-14T01:35:53.524Z,14.59
2022-10-14T01:36:53.541Z,14.40
2022-10-14T01:37:53.528Z,14.48
2022-10-14T01:38:53.541Z,14.41
2022-10-14T01:39:53.543Z,14.35
2022-10-14T01:40:53.554Z,14.41
2022-10-14T01:41:53.557Z,14.35
2022-10-14T01:42:53.569Z,14.43
2022-10-14T01:43:53.570Z,14.37
2022-10-14T01:44:53.584Z,14.43
2022-10-14T01:45:53.592Z,14.41
2022-10-14T01:46:53.598Z,14.40
2022-10-14T01:47:53.597Z,14.45
2022-10-14T01:48:53.612Z,14.36
2022-10-14T01:49:53.619Z,14.45
2022-10-14T01:50:53.622Z,14.36
2022-10-14T01:51:53.632Z,14.36
2022-10-14T01:52:53.657Z,14.40
2022-10-14T01:53:53.641Z,14.36
2022-10-14T01:54:53.656Z,14.44
2022-10-14T01:55:53.660Z,14.35
2022-10-14T01:56:53.662Z,14.35
2022-10-14T01:57:53.674Z,14.43
2022-10-14T01:58:53.676Z,14.35
2022-10-14T01:59:53.690Z,14.41
2022-10-14T02:00:53.708Z,14.41
2022-10-14T02:01:53.767Z,14.32
2022-10-14T02:02:53.713Z,14.45
2022-10-14T02:03:53.716Z,14.36
2022-10-14T02:04:53.718Z,14.35
2022-10-14T02:05:53.736Z,14.45
2022-10-14T02:06:53.738Z,14.32
2022-10-14T02:07:53.739Z,14.37
2022-10-14T02:08:53.774Z,14.43
2022-10-14T02:09:53.761Z,14.37
2022-10-14T02:10:56.025Z,14.43
2022-10-14T02:11:53.774Z,14.41
2022-10-14T02:12:53.781Z,14.33
2022-10-14T02:13:53.782Z,14.37
2022-10-14T02:14:53.788Z,14.45
2022-10-14T02:15:53.795Z,14.43
2022-10-14T02:16:53.802Z,14.40
2022-10-14T02:17:53.817Z,14.48
2022-10-14T02:18:53.817Z,14.36
2022-10-14T02:19:53.826Z,14.36
2022-10-14T02:20:53.837Z,14.41
2022-10-14T02:21:53.838Z,14.44
2022-10-14T02:22:53.845Z,14.32
2022-10-14T02:23:53.850Z,14.32
2022-10-14T02:24:53.889Z,14.43
2022-10-14T02:25:53.875Z,14.32
2022-10-14T02:26:53.882Z,14.37
2022-10-14T02:27:53.886Z,14.41
2022-10-14T02:28:53.960Z,14.43
2022-10-14T02:29:53.903Z,14.40
2022-10-14T02:30:53.902Z,14.30
2022-10-14T02:31:53.915Z,14.40
2022-10-14T02:32:53.924Z,14.36
2022-10-14T02:33:53.925Z,14.30
2022-10-14T02:34:53.940Z,14.37
2022-10-14T02:35:53.936Z,14.33
2022-10-14T02:36:53.955Z,14.36
2022-10-14T02:37:53.951Z,14.33
2022-10-14T02:38:53.966Z,14.26
2022-10-14T02:39:53.974Z,14.30
2022-10-14T02:40:54.001Z,14.29
2022-10-14T02:41:53.981Z,14.33
2022-10-14T02:42:53.992Z,14.29
2022-10-14T02:43:54.003Z,14.28
2022-10-14T02:44:54.003Z,14.33
2022-10-14T02:45:54.008Z,14.26
2022-10-14T02:46:54.014Z,14.30
2022-10-14T02:47:54.021Z,14.23
2022-10-14T02:48:54.035Z,14.26
2022-10-14T02:49:54.038Z,14.28
2022-10-14T02:50:54.043Z,14.32
2022-10-14T02:51:54.056Z,14.22
2022-10-14T02:52:54.056Z,14.26
2022-10-14T02:53:54.066Z,14.26
2022-10-14T02:54:54.071Z,14.20
2022-10-14T02:55:54.078Z,14.23
2022-10-14T02:56:54.111Z,14.20
2022-10-14T02:57:54.100Z,14.28
2022-10-14T02:58:54.099Z,14.29
2022-10-14T02:59:54.111Z,14.17
2022-10-14T03:00:54.114Z,14.22
2022-10-14T03:01:54.156Z,14.20
2022-10-14T03:02:54.127Z,14.17
2022-10-14T03:03:54.142Z,14.08
2022-10-14T03:04:54.141Z,14.10
2022-10-14T03:05:54.154Z,14.08
2022-10-14T03:06:54.155Z,14.08
2022-10-14T03:07:54.167Z,14.11
2022-10-14T03:08:54.170Z,14.04
2022-10-14T03:09:54.183Z,14.07
2022-10-14T03:10:54.183Z,14.12
2022-10-14T03:11:54.196Z,14.14
2022-10-14T03:12:54.226Z,14.17
2022-10-14T03:13:54.212Z,14.14
2022-10-14T03:14:54.217Z,14.08
2022-10-14T03:15:54.224Z,14.14
2022-10-14T03:16:54.230Z,14.10
2022-10-14T03:17:54.231Z,14.08
2022-10-14T03:18:54.246Z,14.07
2022-10-14T03:19:54.245Z,14.07
2022-10-14T03:20:54.259Z,14.05
2022-10-14T03:21:54.260Z,14.05
2022-10-14T03:22:54.272Z,14.03
2022-10-14T03:23:54.281Z,14.08
2022-10-14T03:24:54.285Z,14.04
2022-10-14T03:25:54.295Z,14.05
2022-10-14T03:26:54.293Z,14.05
2022-10-14T03:27:54.301Z,14.00
2022-10-14T03:28:54.486Z,14.00
2022-10-14T03:29:54.322Z,13.93
2022-10-14T03:30:54.320Z,13.96
2022-10-14T03:31:54.327Z,14.07
2022-10-14T03:32:54.342Z,14.00
2022-10-14T03:33:54.351Z,14.10
2022-10-14T03:34:54.350Z,14.04
2022-10-14T03:35:54.361Z,13.97
2022-10-14T03:36:54.363Z,14.04
2022-10-14T03:37:54.370Z,13.96
2022-10-14T03:38:54.377Z,13.96
2022-10-14T03:39:54.388Z,14.04
2022-10-14T03:40:54.398Z,13.96
2022-10-14T03:41:54.398Z,13.95
2022-10-14T03:42:54.413Z,13.99
2022-10-14T03:43:54.417Z,14.05
2022-10-14T03:44:54.439Z,14.05
2022-10-14T03:45:54.425Z,14.03
2022-10-14T03:46:54.435Z,13.93
2022-10-14T03:47:54.438Z,13.92
2022-10-14T03:48:54.451Z,14.00
2022-10-14T03:49:54.460Z,13.99
2022-10-14T03:50:54.458Z,14.03
2022-10-14T03:51:54.474Z,13.99
2022-10-14T03:52:55.826Z,14.05
2022-10-14T03:53:54.483Z,14.07
2022-10-14T03:54:54.485Z,14.03
2022-10-14T03:55:54.500Z,14.04
2022-10-14T03:56:54.506Z,14.05
2022-10-14T03:57:54.515Z,13.97
2022-10-14T03:58:54.513Z,14.05
2022-10-14T03:59:54.528Z,14.07
2022-10-14T04:00:54.548Z,13.96
2022-10-14T04:01:54.621Z,14.05
2022-10-14T04:02:54.542Z,13.95
2022-10-14T04:03:54.557Z,14.04
2022-10-14T04:04:59.818Z,14.07
2022-10-14T04:05:54.570Z,14.07
2022-10-14T04:06:54.578Z,13.99
2022-10-14T04:07:54.584Z,13.99
2022-10-14T04:08:54.584Z,14.04
2022-10-14T04:09:54.590Z,14.03
2022-10-14T04:10:54.598Z,13.99
2022-10-14T04:11:54.603Z,13.96
2022-10-14T04:12:54.611Z,14.07
2022-10-14T04:13:54.625Z,14.05
2022-10-14T04:14:54.638Z,14.03
2022-10-14T04:15:54.638Z,14.03
2022-10-14T04:16:54.666Z,14.03
2022-10-14T04:17:54.652Z,14.08
2022-10-14T04:18:54.683Z,14.07
2022-10-14T04:19:54.689Z,14.03
2022-10-14T04:20:54.675Z,14.11
2022-10-14T04:21:54.687Z,14.03
2022-10-14T04:22:54.684Z,14.04
2022-10-14T04:23:54.685Z,13.90
2022-10-14T04:24:54.701Z,14.04
2022-10-14T04:25:54.718Z,14.03
2022-10-14T04:26:54.716Z,13.90
2022-10-14T04:27:54.720Z,13.89
2022-10-14T04:28:54.747Z,13.92
2022-10-14T04:29:54.728Z,13.95
2022-10-14T04:30:54.736Z,13.90
2022-10-14T04:31:54.747Z,13.92
2022-10-14T04:32:54.769Z,13.92
2022-10-14T04:33:54.761Z,13.89
2022-10-14T04:34:54.762Z,13.87
2022-10-14T04:35:54.774Z,13.89
2022-10-14T04:36:54.783Z,13.90
2022-10-14T04:37:54.782Z,13.89
2022-10-14T04:38:54.797Z,13.89
2022-10-14T04:39:54.796Z,13.86
2022-10-14T04:40:54.808Z,13.90
2022-10-14T04:41:54.816Z,13.90
2022-10-14T04:42:54.815Z,13.97
2022-10-14T04:43:54.829Z,13.93
2022-10-14T04:44:54.838Z,13.92
2022-10-14T04:45:54.844Z,13.90
2022-10-14T04:46:54.842Z,13.89
2022-10-14T04:47:54.856Z,13.90
2022-10-14T04:48:54.875Z,13.89
2022-10-14T04:49:54.863Z,13.89
2022-10-14T04:50:54.879Z,13.93
2022-10-14T04:51:54.877Z,13.89
2022-10-14T04:52:54.881Z,13.89
2022-10-14T04:53:54.890Z,13.97
2022-10-14T04:54:54.903Z,13.90
2022-10-14T04:55:54.913Z,13.92
2022-10-14T04:56:54.908Z,13.86
2022-10-14T04:57:54.925Z,13.87
2022-10-14T04:58:54.932Z,13.90
2022-10-14T04:59:54.930Z,13.95
2022-10-14T05:00:54.947Z,14.00
2022-10-14T05:01:55.042Z,13.93
2022-10-14T05:02:54.959Z,13.95
2022-10-14T05:03:54.957Z,14.03
2022-10-14T05:04:54.994Z,14.04
2022-10-14T05:05:54.973Z,14.07
2022-10-14T05:06:54.987Z,14.07
2022-10-14T05:07:54.984Z,13.95
2022-10-14T05:08:54.993Z,14.00
2022-10-14T05:09:56.765Z,13.87
2022-10-14T05:10:55.006Z,13.92
2022-10-14T05:11:55.010Z,13.89
2022-10-14T05:12:55.028Z,13.92
2022-10-14T05:13:55.028Z,13.99
2022-10-14T05:14:55.039Z,13.93
2022-10-14T05:15:55.048Z,13.92
2022-10-14T05:16:55.045Z,13.89
2022-10-14T05:17:55.055Z,13.93
2022-10-14T05:18:55.068Z,13.93
2022-10-14T05:19:55.068Z,13.95
2022-10-14T05:20:55.096Z,14.10
2022-10-14T05:21:55.087Z,13.95
2022-10-14T05:22:55.095Z,14.03
2022-10-14T05:23:55.101Z,13.96
2022-10-14T05:24:55.102Z,14.03
2022-10-14T05:25:55.108Z,13.92
2022-10-14T05:26:55.124Z,13.92
2022-10-14T05:27:55.127Z,14.00
2022-10-14T05:28:55.206Z,13.95
2022-10-14T05:29:55.143Z,13.92
2022-10-14T05:30:55.144Z,13.93
2022-10-14T05:31:55.170Z,14.07
2022-10-14T05:32:55.155Z,13.95
2022-10-14T05:33:55.164Z,14.08
2022-10-14T05:34:55.177Z,14.03
2022-10-14T05:35:59.109Z,13.99
2022-10-14T05:36:55.213Z,14.00
2022-10-14T05:37:55.198Z,14.10
2022-10-14T05:38:55.203Z,14.03
2022-10-14T05:39:55.210Z,13.99
2022-10-14T05:40:55.210Z,14.04
2022-10-14T05:41:55.218Z,14.08
2022-10-14T05:42:55.227Z,14.04
2022-10-14T05:43:55.243Z,14.00
2022-10-14T05:44:55.247Z,13.97
2022-10-14T05:45:55.254Z,13.97
2022-10-14T05:46:55.254Z,13.99
2022-10-14T05:47:55.258Z,14.00
2022-10-14T05:48:55.268Z,13.96
2022-10-14T05:49:55.276Z,14.12
2022-10-14T05:50:55.288Z,14.03
2022-10-14T05:51:55.285Z,14.00
2022-10-14T05:52:55.315Z,14.00
2022-10-14T05:53:55.312Z,14.00
2022-10-14T05:54:55.316Z,14.03
2022-10-14T05:55:55.321Z,14.05
2022-10-14T05:56:55.332Z,14.08
2022-10-14T05:57:55.336Z,14.05
2022-10-14T05:58:55.343Z,14.05
2022-10-14T05:59:55.347Z,14.10
2022-10-14T06:00:55.365Z,14.07
2022-10-14T06:01:55.356Z,14.00
2022-10-14T06:02:55.404Z,14.10
2022-10-14T06:03:55.376Z,14.04
2022-10-14T06:04:55.384Z,14.07
2022-10-14T06:05:55.383Z,14.08
2022-10-14T06:06:55.395Z,14.10
2022-10-14T06:07:55.398Z,14.04
2022-10-14T06:08:55.423Z,14.04
2022-10-14T06:09:55.416Z,14.12
2022-10-14T06:10:55.416Z,14.10
2022-10-14T06:11:55.431Z,14.12
2022-10-14T06:12:55.431Z,14.12
2022-10-14T06:13:55.443Z,14.10
2022-10-14T06:14:55.529Z,14.12
2022-10-14T06:15:55.454Z,14.12
2022-10-14T06:16:55.456Z,14.22
2022-10-14T06:17:55.470Z,14.26
2022-10-14T06:18:55.470Z,14.28
2022-10-14T06:19:55.483Z,14.26
2022-10-14T06:20:55.493Z,14.18
2022-10-14T06:21:55.498Z,14.22
2022-10-14T06:22:55.507Z,14.23
2022-10-14T06:23:55.511Z,14.18
2022-10-14T06:24:57.481Z,14.26
2022-10-14T06:25:55.519Z,14.23
2022-10-14T06:26:55.532Z,14.20
2022-10-14T06:27:55.532Z,14.11
2022-10-14T06:28:55.606Z,14.25
2022-10-14T06:29:55.549Z,14.14
2022-10-14T06:30:55.559Z,14.22
2022-10-14T06:31:55.568Z,14.28
2022-10-14T06:32:55.572Z,14.28
2022-10-14T06:33:55.582Z,14.25
2022-10-14T06:34:55.580Z,14.22
2022-10-14T06:35:55.591Z,14.32
2022-10-14T06:36:59.782Z,14.32
2022-10-14T06:37:55.609Z,14.23
2022-10-14T06:38:55.607Z,14.33
2022-10-14T06:39:55.616Z,14.20
2022-10-14T06:40:55.641Z,14.32
2022-10-14T06:41:55.636Z,14.28
2022-10-14T06:42:55.635Z,14.29
2022-10-14T06:43:55.648Z,14.30
2022-10-14T06:44:55.648Z,14.32
2022-10-14T06:45:55.675Z,14.30
2022-10-14T06:46:55.664Z,14.43
2022-10-14T06:47:55.679Z,14.36
2022-10-14T06:48:55.683Z,14.48
2022-10-14T06:49:55.682Z,14.48
2022-10-14T06:50:55.698Z,14.44
2022-10-14T06:51:55.704Z,14.41
2022-10-14T06:52:55.705Z,14.44
2022-10-14T06:53:55.710Z,14.35
2022-10-14T06:54:55.721Z,14.32
2022-10-14T06:55:55.724Z,14.43
2022-10-14T06:56:55.760Z,14.41
2022-10-14T06:57:55.739Z,14.40
2022-10-14T06:58:55.746Z,14.36
2022-10-14T06:59:55.760Z,14.29
2022-10-14T07:00:55.759Z,14.26
2022-10-14T07:01:55.901Z,14.33
2022-10-14T07:02:55.774Z,14.29
2022-10-14T07:03:56.836Z,14.29
2022-10-14T07:04:55.794Z,14.28
2022-10-14T07:05:55.806Z,14.20
2022-10-14T07:06:55.802Z,14.17
2022-10-14T07:07:55.874Z,14.15
2022-10-14T07:08:55.818Z,14.17
2022-10-14T07:09:55.824Z,14.12
2022-10-14T07:10:55.829Z,14.15
2022-10-14T07:11:55.845Z,14.10
2022-10-14T07:12:55.883Z,14.14
2022-10-14T07:13:55.860Z,14.14
2022-10-14T07:14:55.858Z,14.22
2022-10-14T07:15:55.873Z,14.25
2022-10-14T07:16:55.871Z,14.28
2022-10-14T07:17:55.878Z,14.30
2022-10-14T07:18:55.887Z,14.30
2022-10-14T07:19:55.895Z,14.40
2022-10-14T07:20:55.901Z,14.35
2022-10-14T07:21:55.915Z,14.50
2022-10-14T07:22:55.923Z,14.63
2022-10-14T07:23:55.927Z,14.63
2022-10-14T07:24:55.936Z,14.70
2022-10-14T07:25:55.942Z,14.86
2022-10-14T07:26:55.990Z,15.00
2022-10-14T07:27:55.956Z,15.06
2022-10-14T07:28:56.063Z,15.25
2022-10-14T07:29:55.972Z,15.22
2022-10-14T07:30:55.981Z,15.24
2022-10-14T07:31:55.981Z,15.36
2022-10-14T07:32:55.986Z,15.36
2022-10-14T07:33:56.000Z,15.47
2022-10-14T07:34:56.009Z,15.51
2022-10-14T07:35:56.016Z,15.57
2022-10-14T07:36:56.018Z,15.59
2022-10-14T07:37:56.027Z,15.68
2022-10-14T07:38:56.032Z,15.83
2022-10-14T07:39:56.045Z,16.61
2022-10-14T07:40:56.046Z,17.45
2022-10-14T07:41:56.062Z,18.31
2022-10-14T07:42:56.062Z,18.83
2022-10-14T07:43:56.070Z,19.44
2022-10-14T07:44:56.105Z,19.45
2022-10-14T07:45:56.090Z,19.34
2022-10-14T07:46:56.105Z,19.26
2022-10-14T07:47:56.110Z,19.99
2022-10-14T07:48:57.463Z,20.60
2022-10-14T10:55:12.636Z,27.14
2022-10-14T10:56:12.633Z,27.18
2022-10-14T10:57:12.645Z,27.27
2022-10-14T10:58:12.661Z,27.40
2022-10-14T11:00:01.052Z,27.82
2022-10-14T11:01:00.549Z,27.95
2022-10-14T11:02:00.271Z,28.11
2022-10-14T11:03:00.288Z,28.38
2022-10-14T11:13:34.553Z,29.41
2022-10-14T11:14:34.549Z,29.34
2022-10-14T11:15:34.566Z,29.42
2022-10-14T11:54:59.761Z,25.54
2022-10-14T14:01:31.343Z,20.19
2022-10-14T14:02:31.263Z,20.14
2022-10-14T14:03:31.273Z,20.28
2022-10-14T14:04:31.281Z,20.22
2022-10-14T14:05:31.301Z,20.25
2022-10-14T14:06:39.899Z,20.26
2022-10-14T14:08:08.419Z,20.25
2022-10-14T14:08:46.985Z,20.29
2022-10-14T14:09:31.340Z,20.29
2022-10-14T14:10:31.343Z,20.22
2022-10-14T14:11:31.351Z,20.13
2022-10-14T14:12:31.371Z,20.14
2022-10-14T14:13:31.380Z,20.09
2022-10-14T14:14:31.392Z,20.03
2022-10-14T14:15:31.400Z,20.00
2022-10-14T14:16:31.458Z,19.99
2022-10-14T14:17:31.436Z,19.92
2022-10-14T14:18:38.410Z,19.92
2022-10-14T14:20:59.075Z,19.86
2022-10-14T14:31:33.727Z,19.71
2022-10-14T14:32:27.579Z,19.76
2022-10-14T14:33:27.620Z,19.67
2022-10-14T14:34:27.598Z,19.70
2022-10-14T14:35:27.618Z,19.63
2022-10-14T14:36:46.832Z,19.66
2022-10-14T14:37:56.874Z,19.58
2022-10-14T14:38:31.486Z,19.66
2022-10-14T14:45:20.144Z,19.64
2022-10-14T14:46:20.147Z,19.55
2022-10-14T14:47:20.603Z,19.56
2022-10-14T14:48:20.167Z,19.63
2022-10-14T14:49:20.211Z,19.63
2022-10-14T14:57:49.690Z,19.86
2022-10-14T15:04:31.559Z,19.91
2022-10-14T15:05:31.545Z,19.86
2022-10-14T15:06:31.559Z,19.85
2022-10-14T15:07:31.569Z,19.77
2022-10-14T15:08:31.571Z,19.81
2022-10-14T15:09:31.591Z,19.67
2022-10-14T15:10:31.614Z,19.63
2022-10-14T15:11:31.607Z,19.66
2022-10-14T15:12:31.624Z,19.64
2022-10-14T15:13:31.629Z,19.64
2022-10-14T15:14:31.638Z,19.55
2022-10-14T15:15:31.657Z,19.48
2022-10-14T15:16:31.660Z,19.63
2022-10-14T15:17:31.674Z,19.54
2022-10-14T15:18:31.683Z,19.48
2022-10-14T15:19:35.651Z,19.45
2022-10-14T15:20:31.733Z,19.37
2022-10-14T15:21:31.723Z,19.33
2022-10-14T15:22:32.032Z,19.36
2022-10-14T15:23:31.745Z,19.36
2022-10-14T15:24:31.753Z,19.30
2022-10-14T15:25:31.759Z,19.18
2022-10-14T15:26:31.766Z,19.14
2022-10-14T15:27:31.781Z,19.15
2022-10-14T15:29:54.424Z,19.02
2022-10-14T15:36:33.739Z,18.90
2022-10-14T15:37:33.710Z,18.88
2022-10-14T15:38:33.743Z,18.89
2022-10-14T15:39:33.742Z,18.77
2022-10-14T15:40:33.741Z,18.75
2022-10-14T15:41:33.758Z,18.83
2022-10-14T15:42:33.770Z,18.73
2022-10-14T15:43:33.770Z,18.74
2022-10-14T15:44:33.786Z,18.71
2022-10-14T15:45:33.796Z,18.77
2022-10-14T15:46:33.810Z,18.75
2022-10-14T15:47:33.810Z,18.68
2022-10-14T15:48:33.823Z,18.75
2022-10-14T15:49:33.829Z,18.71
2022-10-14T15:50:33.840Z,18.66
2022-10-14T15:51:33.847Z,18.65
2022-10-14T15:52:33.935Z,18.66
2022-10-14T15:53:33.879Z,18.63
2022-10-14T15:54:33.886Z,18.62
2022-10-14T15:55:33.884Z,18.68
2022-10-14T15:56:33.904Z,18.62
2022-10-14T15:57:33.914Z,18.63
2022-10-14T15:58:33.921Z,18.58
2022-10-14T15:59:33.937Z,18.55
2022-10-14T16:00:33.941Z,18.45
2022-10-14T16:01:34.011Z,18.45
2022-10-14T16:02:33.953Z,18.41
2022-10-14T16:03:37.337Z,18.44
2022-10-14T16:04:33.979Z,18.53
2022-10-14T16:05:33.982Z,18.38
2022-10-14T16:06:33.991Z,18.43
2022-10-14T16:07:34.006Z,18.45
2022-10-14T16:08:34.039Z,18.41
2022-10-14T16:09:34.025Z,18.38
2022-10-14T16:10:34.555Z,18.45
2022-10-14T16:11:34.039Z,18.47
2022-10-14T16:12:34.049Z,18.33
2022-10-14T16:13:34.056Z,18.35
2022-10-14T16:14:34.074Z,18.37
2022-10-14T16:15:34.086Z,18.34
2022-10-14T16:16:34.088Z,18.33
2022-10-14T16:17:34.095Z,18.33
2022-10-14T16:18:34.109Z,18.26
2022-10-14T16:19:34.122Z,18.35
2022-10-14T16:20:34.126Z,18.25
2022-10-14T16:21:34.138Z,18.20
2022-10-14T16:22:34.148Z,18.23
2022-10-14T16:23:34.154Z,18.29
2022-10-14T16:24:34.188Z,18.20
2022-10-14T16:25:34.173Z,18.26
2022-10-14T16:26:34.176Z,18.28
2022-10-14T16:27:34.187Z,18.19
2022-10-14T16:28:34.223Z,18.25
2022-10-14T16:29:34.206Z,18.28
2022-10-14T16:30:34.212Z,18.28
2022-10-14T16:31:34.229Z,18.29
2022-10-14T16:32:34.229Z,18.16
2022-10-14T16:33:34.243Z,18.16
2022-10-14T16:34:34.257Z,18.18
2022-10-14T16:35:34.267Z,18.15
2022-10-14T16:36:34.266Z,18.20
2022-10-14T16:37:34.275Z,18.13
2022-10-14T16:38:34.293Z,18.13
2022-10-14T16:39:34.294Z,18.11
2022-10-14T16:40:36.822Z,18.15
2022-10-14T16:41:34.311Z,18.13
2022-10-14T16:42:34.325Z,18.15
2022-10-14T16:43:34.330Z,18.13
2022-10-14T16:44:34.340Z,18.16
2022-10-14T16:45:34.354Z,18.10
2022-10-14T16:46:34.364Z,18.15
2022-10-14T16:47:34.372Z,18.15
2022-10-14T16:48:34.381Z,18.07
2022-10-14T16:49:34.392Z,18.05
2022-10-14T16:50:34.400Z,18.05
2022-10-14T16:51:34.411Z,18.03
2022-10-14T16:52:34.412Z,18.01
2022-10-14T16:53:34.428Z,18.08
2022-10-14T16:54:34.438Z,18.07
2022-10-14T16:55:34.439Z,18.05
2022-10-14T16:56:34.475Z,18.07
2022-10-14T16:57:34.456Z,18.01
2022-10-14T16:58:34.475Z,18.01
2022-10-14T16:59:34.483Z,17.98
2022-10-14T17:00:34.484Z,17.98
2022-10-14T17:01:34.562Z,18.00
2022-10-14T17:02:34.503Z,17.94
2022-10-14T17:03:34.518Z,18.00
2022-10-14T17:04:34.519Z,18.01
2022-10-14T17:05:34.535Z,17.97
2022-10-14T17:06:34.540Z,17.94
2022-10-14T17:07:34.550Z,17.92
2022-10-14T17:08:34.565Z,17.86
2022-10-14T17:09:34.570Z,17.90
2022-10-14T17:10:34.579Z,17.87
2022-10-14T17:11:34.628Z,17.87
2022-10-14T17:12:34.620Z,17.87
2022-10-14T17:13:34.599Z,17.90
2022-10-14T17:14:34.618Z,17.83
2022-10-14T17:15:34.618Z,17.86
2022-10-14T17:16:34.635Z,17.86
2022-10-14T17:17:34.644Z,17.89
2022-10-14T17:18:35.120Z,17.85
2022-10-14T17:19:34.654Z,17.95
2022-10-14T17:20:34.672Z,17.90
2022-10-14T17:21:34.675Z,17.94
2022-10-14T17:22:34.680Z,17.83
2022-10-14T17:23:34.696Z,17.86
2022-10-14T17:24:34.704Z,17.87
2022-10-14T17:25:34.716Z,17.90
2022-10-14T17:26:34.723Z,17.86
2022-10-14T17:27:34.728Z,17.89
2022-10-14T17:28:34.823Z,17.87
2022-10-14T17:29:34.752Z,17.83
2022-10-14T17:30:34.756Z,17.86
2022-10-14T17:31:34.767Z,17.94
2022-10-14T17:32:34.781Z,17.86
2022-10-14T17:33:34.789Z,17.89
2022-10-14T17:34:34.800Z,17.94
2022-10-14T17:35:34.813Z,17.86
2022-10-14T17:36:34.814Z,17.85
2022-10-14T17:37:34.814Z,17.85
2022-10-14T17:38:34.832Z,17.85
2022-10-14T17:39:34.833Z,17.86
2022-10-14T17:40:34.854Z,17.79
2022-10-14T17:41:34.859Z,17.83
2022-10-14T17:42:34.869Z,17.80
2022-10-14T17:43:34.875Z,17.83
2022-10-14T17:44:34.902Z,17.83
2022-10-14T17:45:34.894Z,17.86
2022-10-14T17:46:34.904Z,17.85
2022-10-14T17:47:34.912Z,17.83
2022-10-14T17:48:34.915Z,17.95
2022-10-14T17:49:34.923Z,17.89
2022-10-14T17:50:34.931Z,17.90
2022-10-14T17:51:34.941Z,17.80
2022-10-14T17:52:34.973Z,17.89
2022-10-14T17:53:34.967Z,17.85
2022-10-14T17:54:34.977Z,17.85
2022-10-14T17:55:34.986Z,17.86
2022-10-14T17:56:34.990Z,17.89
2022-10-14T17:57:35.000Z,17.85
2022-10-14T17:58:35.004Z,17.86
2022-10-14T17:59:35.014Z,17.87
2022-10-14T18:00:35.045Z,17.82
2022-10-14T18:02:02.198Z,17.85
2022-10-14T18:02:35.139Z,17.83
2022-10-14T18:03:35.058Z,17.87
2022-10-14T18:04:35.059Z,17.85
2022-10-14T18:05:35.074Z,17.82
2022-10-14T18:06:35.082Z,17.83
2022-10-14T18:07:35.091Z,17.85
2022-10-14T18:08:35.092Z,17.78
2022-10-14T18:09:35.115Z,17.80
2022-10-14T18:10:35.112Z,17.74
2022-10-14T18:11:56.301Z,17.78
2022-10-14T18:12:35.140Z,17.72
2022-10-14T18:13:35.187Z,17.80
2022-10-14T18:14:35.156Z,17.82
2022-10-14T18:15:35.157Z,17.72
2022-10-14T18:16:35.201Z,17.85
2022-10-14T18:17:35.179Z,17.71
2022-10-14T18:18:35.189Z,17.76
2022-10-14T18:19:35.213Z,17.70
2022-10-14T18:20:35.213Z,17.71
2022-10-14T18:21:35.215Z,17.74
2022-10-14T18:22:35.293Z,17.72
2022-10-14T18:23:35.227Z,17.76
2022-10-14T18:24:35.234Z,17.71
2022-10-14T18:25:35.265Z,17.76
2022-10-14T18:26:35.257Z,17.74
2022-10-14T18:27:35.277Z,17.74
2022-10-14T18:28:35.399Z,17.65
2022-10-14T18:29:35.287Z,17.74
2022-10-14T18:30:35.296Z,17.65
2022-10-14T18:31:35.305Z,17.74
2022-10-14T18:32:35.335Z,17.72
2022-10-14T18:33:35.321Z,17.68
2022-10-14T18:34:35.324Z,17.71
2022-10-14T18:35:35.330Z,17.65
2022-10-14T18:36:35.348Z,17.71
2022-10-14T18:37:35.352Z,17.64
2022-10-14T18:38:35.360Z,17.70
2022-10-14T18:39:35.376Z,17.71
2022-10-14T18:40:35.384Z,17.67
2022-10-14T18:41:35.387Z,17.70
2022-10-14T18:42:35.427Z,17.68
2022-10-14T18:43:35.495Z,17.60
2022-10-14T18:44:35.532Z,17.56
2022-10-14T18:45:35.461Z,17.67
2022-10-14T18:46:35.432Z,17.59
2022-10-14T18:47:35.448Z,17.64
2022-10-14T18:48:35.518Z,17.59
2022-10-14T18:49:39.834Z,17.57
2022-10-14T18:50:35.471Z,17.57
2022-10-14T18:51:35.481Z,17.51
2022-10-14T18:52:35.481Z,17.56
2022-10-14T18:53:35.499Z,17.57
2022-10-14T18:54:35.527Z,17.63
2022-10-14T18:55:35.508Z,17.59
2022-10-14T18:56:35.526Z,17.59
2022-10-14T18:57:35.534Z,17.59
2022-10-14T18:58:35.538Z,17.60
2022-10-14T18:59:35.550Z,17.49
2022-10-14T19:00:35.571Z,17.63
2022-10-14T19:01:35.614Z,17.49
2022-10-14T19:02:35.572Z,17.46
2022-10-14T19:03:35.577Z,17.51
2022-10-14T19:04:35.607Z,17.46
2022-10-14T19:05:35.613Z,17.56
2022-10-14T19:06:35.606Z,17.45
2022-10-14T19:07:35.620Z,17.48
2022-10-14T19:08:35.621Z,17.57
2022-10-14T19:09:35.642Z,17.52
2022-10-14T19:10:35.651Z,17.63
2022-10-14T19:11:35.649Z,17.60
2022-10-14T19:12:35.657Z,17.45
2022-10-14T19:13:35.667Z,17.46
2022-10-14T19:14:35.676Z,17.49
2022-10-14T19:15:36.084Z,17.57
2022-10-14T19:16:35.700Z,17.45
2022-10-14T19:17:35.727Z,17.51
2022-10-14T19:18:35.717Z,17.44
2022-10-14T19:19:35.738Z,17.46
2022-10-14T19:20:35.753Z,17.42
2022-10-14T19:21:35.744Z,17.45
2022-10-14T19:22:35.754Z,17.48
2022-10-14T19:23:35.761Z,17.41
2022-10-14T19:24:35.766Z,17.48
2022-10-14T19:25:35.771Z,17.59
2022-10-14T19:26:35.784Z,17.49
2022-10-14T19:27:35.790Z,17.41
2022-10-14T19:28:35.850Z,17.45
2022-10-14T19:29:35.816Z,17.44
2022-10-14T19:30:35.826Z,17.44
2022-10-14T19:31:35.838Z,17.48
2022-10-14T19:32:35.834Z,17.48